createdAt,value
2023-05-25T00:01:01.177Z,75.60
2023-05-25T00:03:31.935Z,75.60
2023-05-25T00:06:01.988Z,75.70
2023-05-25T00:08:30.550Z,75.70
2023-05-25T00:10:58.696Z,75.80
2023-05-25T00:13:27.086Z,75.80
2023-05-25T00:15:55.377Z,75.80
2023-05-25T00:18:24.909Z,75.90
2023-05-25T00:20:55.204Z,75.80
2023-05-25T00:23:23.321Z,75.90
2023-05-25T00:25:51.550Z,75.90
2023-05-25T00:28:19.662Z,76.00
2023-05-25T00:30:47.778Z,76.00
2023-05-25T00:33:16.102Z,76.10
2023-05-25T00:35:44.971Z,76.10
2023-05-25T00:38:15.704Z,76.10
2023-05-25T00:40:44.280Z,76.20
2023-05-25T00:43:13.211Z,76.20
2023-05-25T00:45:41.633Z,76.20
2023-05-25T00:48:10.780Z,76.30
2023-05-25T00:50:41.833Z,76.40
2023-05-25T00:53:11.405Z,76.40
2023-05-25T00:55:45.997Z,76.40
2023-05-25T00:58:17.988Z,76.50
2023-05-25T01:00:49.491Z,76.50
2023-05-25T01:03:21.981Z,76.60
2023-05-25T01:05:52.439Z,76.60
2023-05-25T01:08:23.766Z,76.60
2023-05-25T01:10:54.315Z,76.60
2023-05-25T01:13:22.814Z,76.60
2023-05-25T01:15:52.389Z,76.60
2023-05-25T01:18:20.478Z,76.60
2023-05-25T01:20:58.833Z,76.60
2023-05-25T01:23:34.069Z,76.60
2023-05-25T01:26:10.578Z,76.60
2023-05-25T01:28:42.127Z,76.60
2023-05-25T01:31:11.097Z,76.50
2023-05-25T01:33:40.390Z,76.30
2023-05-25T01:36:09.945Z,76.00
2023-05-25T01:38:39.149Z,75.90
2023-05-25T01:41:07.273Z,75.80
2023-05-25T01:43:35.491Z,75.70
2023-05-25T01:46:11.172Z,75.70
2023-05-25T01:48:47.214Z,75.50
2023-05-25T01:51:27.312Z,75.60
2023-05-25T01:54:03.150Z,75.60
2023-05-25T01:56:33.266Z,75.60
2023-05-25T01:59:03.714Z,75.70
2023-05-25T02:01:33.434Z,75.70
2023-05-25T02:04:02.135Z,75.70
2023-05-25T02:06:31.929Z,75.80
2023-05-25T02:09:00.021Z,75.70
2023-05-25T02:11:28.113Z,75.70
2023-05-25T02:13:56.238Z,75.70
2023-05-25T02:16:24.562Z,75.70
2023-05-25T02:18:53.146Z,75.80
2023-05-25T02:21:21.253Z,75.60
2023-05-25T02:23:50.782Z,75.60
2023-05-25T02:26:18.885Z,75.60
2023-05-25T02:28:46.974Z,75.50
2023-05-25T02:31:15.106Z,75.50
2023-05-25T02:33:43.174Z,75.50
2023-05-25T02:36:11.361Z,75.50
2023-05-25T02:38:39.453Z,75.50
2023-05-25T02:41:08.944Z,75.40
2023-05-25T02:43:37.556Z,75.30
2023-05-25T02:46:05.768Z,75.30
2023-05-25T02:48:34.117Z,75.20
2023-05-25T02:51:02.964Z,75.20
2023-05-25T02:53:31.104Z,75.20
2023-05-25T02:56:00.188Z,75.20
2023-05-25T02:58:29.647Z,75.20
2023-05-25T03:01:00.283Z,75.20
2023-05-25T03:03:28.899Z,75.10
2023-05-25T03:05:58.567Z,75.10
2023-05-25T03:08:26.755Z,75.10
2023-05-25T03:10:54.859Z,75.20
2023-05-25T03:13:22.965Z,75.20
2023-05-25T03:15:52.485Z,75.20
2023-05-25T03:18:20.680Z,75.20
2023-05-25T03:20:48.940Z,75.20
2023-05-25T03:23:17.127Z,75.20
2023-05-25T03:25:45.397Z,75.20
2023-05-25T03:28:13.719Z,75.10
2023-05-25T03:30:42.010Z,75.00
2023-05-25T03:33:13.870Z,75.00
2023-05-25T03:35:42.289Z,74.90
2023-05-25T03:38:10.590Z,74.80
2023-05-25T03:40:38.969Z,74.80
2023-05-25T03:43:07.072Z,74.80
2023-05-25T03:45:35.161Z,74.80
2023-05-25T03:48:03.358Z,74.80
2023-05-25T03:50:34.214Z,74.80
2023-05-25T03:53:02.357Z,74.80
2023-05-25T03:55:30.844Z,74.90
2023-05-25T03:57:59.626Z,74.90
2023-05-25T04:00:27.769Z,74.90
2023-05-25T04:02:57.099Z,74.80
2023-05-25T04:05:26.620Z,74.80
2023-05-25T04:07:56.126Z,74.80
2023-05-25T04:10:24.236Z,74.80
2023-05-25T04:12:52.399Z,74.80
2023-05-25T04:15:21.277Z,74.80
2023-05-25T04:17:49.574Z,74.80
2023-05-25T04:20:17.774Z,74.90
2023-05-25T04:22:45.907Z,74.90
2023-05-25T04:25:17.081Z,75.00
2023-05-25T04:27:46.718Z,75.00
2023-05-25T04:30:15.012Z,75.00
2023-05-25T04:32:45.764Z,75.00
2023-05-25T04:35:15.480Z,75.00
2023-05-25T04:37:43.616Z,75.00
2023-05-25T04:40:14.131Z,74.90
2023-05-25T04:42:45.034Z,75.00
2023-05-25T04:45:17.672Z,75.00
2023-05-25T04:47:45.965Z,75.00
2023-05-25T04:50:14.531Z,75.00
2023-05-25T04:52:42.634Z,75.00
2023-05-25T04:55:11.094Z,75.00
2023-05-25T04:57:39.178Z,75.00
2023-05-25T05:00:12.122Z,74.90
2023-05-25T05:02:40.267Z,74.90
2023-05-25T05:05:08.990Z,74.90
2023-05-25T05:07:37.269Z,75.00
2023-05-25T05:10:05.796Z,75.00
2023-05-25T05:12:33.911Z,75.00
2023-05-25T05:15:02.051Z,75.00
2023-05-25T05:17:31.629Z,75.10
2023-05-25T05:19:59.817Z,75.10
2023-05-25T05:22:27.933Z,75.10
2023-05-25T05:24:56.410Z,75.20
2023-05-25T05:27:26.205Z,75.10
2023-05-25T05:29:54.297Z,75.10
2023-05-25T05:32:22.490Z,75.20
2023-05-25T05:34:51.974Z,75.20
2023-05-25T05:39:48.679Z,74.60
2023-05-25T05:42:16.865Z,75.30
2023-05-25T05:44:44.972Z,75.30
2023-05-25T05:47:13.663Z,75.30
2023-05-25T05:49:41.767Z,75.30
2023-05-25T05:52:11.677Z,75.50
2023-05-25T05:54:39.766Z,75.50
2023-05-25T05:57:07.897Z,75.50
2023-05-25T05:59:36.320Z,75.50
2023-05-25T06:02:04.523Z,75.50
2023-05-25T06:04:32.738Z,75.50
2023-05-25T06:07:01.027Z,75.70
2023-05-25T06:09:30.661Z,75.90
2023-05-25T06:11:58.729Z,75.90
2023-05-25T06:14:28.611Z,75.90
2023-05-25T06:16:57.116Z,76.00
2023-05-25T06:19:25.332Z,76.00
2023-05-25T06:21:53.458Z,76.20
2023-05-25T06:24:21.540Z,76.10
2023-05-25T06:26:51.056Z,76.30
2023-05-25T06:29:19.174Z,76.30
2023-05-25T06:31:47.303Z,76.40
2023-05-25T06:34:15.521Z,76.40
2023-05-25T06:36:43.635Z,76.40
2023-05-25T06:39:11.803Z,76.40
2023-05-25T06:41:40.612Z,76.40
2023-05-25T06:44:10.131Z,76.40
2023-05-25T06:46:39.305Z,76.50
2023-05-25T06:49:07.760Z,76.70
2023-05-25T06:51:35.856Z,76.70
2023-05-25T06:54:04.284Z,76.70
2023-05-25T06:56:32.458Z,76.80
2023-05-25T06:59:00.582Z,76.70
2023-05-25T07:01:30.071Z,76.70
2023-05-25T07:03:58.193Z,76.70
2023-05-25T07:06:26.421Z,76.60
2023-05-25T07:08:55.416Z,76.80
2023-05-25T07:11:23.523Z,76.70
2023-05-25T07:13:51.620Z,76.70
2023-05-25T07:16:19.770Z,76.90
2023-05-25T07:18:49.313Z,76.80
2023-05-25T07:21:17.453Z,76.90
2023-05-25T07:23:45.523Z,76.80
2023-05-25T07:26:15.010Z,76.70
2023-05-25T07:28:43.141Z,76.60
2023-05-25T07:31:12.005Z,76.50
2023-05-25T07:33:40.179Z,76.40
2023-05-25T07:36:11.039Z,76.40
2023-05-25T07:38:39.162Z,76.50
2023-05-25T07:41:07.313Z,76.50
2023-05-25T07:43:35.485Z,76.60
2023-05-25T07:46:03.590Z,76.60
2023-05-25T07:48:31.697Z,76.50
2023-05-25T07:51:00.163Z,76.50
2023-05-25T07:53:29.643Z,76.50
2023-05-25T07:55:57.758Z,76.60
2023-05-25T07:58:25.992Z,76.60
2023-05-25T08:00:54.118Z,76.70
2023-05-25T08:03:31.683Z,76.80
2023-05-25T08:06:04.221Z,76.90
2023-05-25T08:08:33.665Z,76.90
2023-05-25T08:11:01.925Z,76.90
2023-05-25T08:13:30.112Z,76.90
2023-05-25T08:15:58.206Z,76.90
2023-05-25T08:18:26.310Z,76.90
2023-05-25T08:20:54.426Z,76.90
2023-05-25T08:23:22.510Z,77.00
2023-05-25T08:25:52.549Z,77.10
2023-05-25T08:28:21.744Z,77.10
2023-05-25T08:30:49.987Z,77.10
2023-05-25T08:33:18.109Z,77.10
2023-05-25T08:35:46.368Z,77.20
2023-05-25T08:38:14.642Z,77.30
2023-05-25T08:40:44.146Z,77.20
2023-05-25T08:43:13.657Z,77.20
2023-05-25T08:45:45.308Z,77.10
2023-05-25T08:48:35.805Z,77.10
2023-05-25T08:51:10.750Z,77.10
2023-05-25T08:53:41.793Z,77.00
2023-05-25T08:56:15.575Z,76.90
2023-05-25T08:58:52.919Z,76.70
2023-05-25T09:01:23.774Z,76.70
2023-05-25T09:03:52.521Z,76.80
2023-05-25T09:06:21.184Z,76.70
2023-05-25T09:08:49.428Z,76.70
2023-05-25T09:11:27.057Z,76.60
2023-05-25T09:14:06.299Z,76.60
2023-05-25T09:16:34.782Z,76.50
2023-05-25T09:19:03.391Z,77.10
2023-05-25T09:21:31.644Z,76.20
2023-05-25T09:24:01.051Z,76.00
2023-05-25T09:26:29.455Z,75.90
2023-05-25T09:28:57.592Z,75.80
2023-05-25T09:31:27.084Z,75.90
2023-05-25T09:34:00.115Z,75.80
2023-05-25T09:36:28.634Z,75.80
2023-05-25T09:38:57.436Z,75.90
2023-05-25T09:41:27.616Z,76.00
2023-05-25T09:44:09.729Z,76.00
2023-05-25T09:46:40.513Z,76.10
2023-05-25T09:49:10.250Z,75.90
2023-05-25T09:51:38.692Z,75.80
2023-05-25T09:54:10.986Z,75.80
2023-05-25T09:56:39.090Z,75.80
2023-05-25T09:59:07.875Z,75.90
2023-05-25T10:01:36.742Z,75.80
2023-05-25T10:04:06.262Z,75.70
2023-05-25T10:06:34.791Z,75.80
2023-05-25T10:09:05.028Z,75.70
2023-05-25T10:11:36.325Z,75.40
2023-05-25T10:14:08.611Z,75.00
2023-05-25T10:16:41.162Z,74.50
2023-05-25T10:19:18.415Z,74.40
2023-05-25T10:21:52.620Z,74.30
2023-05-25T10:24:27.658Z,74.30
2023-05-25T10:27:07.731Z,74.20
2023-05-25T10:29:43.932Z,73.70
2023-05-25T10:32:12.253Z,73.10
2023-05-25T10:34:42.712Z,72.60
2023-05-25T10:37:11.051Z,72.50
2023-05-25T10:39:39.971Z,72.50
2023-05-25T10:42:08.566Z,72.60
2023-05-25T10:44:36.884Z,72.80
2023-05-25T10:47:05.970Z,72.80
2023-05-25T10:49:35.350Z,72.60
2023-05-25T10:52:05.110Z,72.50
2023-05-25T10:54:36.248Z,72.50
2023-05-25T10:57:11.711Z,71.90
2023-05-25T10:59:45.256Z,71.20
2023-05-25T11:02:13.622Z,71.00
2023-05-25T11:04:42.449Z,71.00
2023-05-25T11:07:16.617Z,70.70
2023-05-25T11:09:56.279Z,69.70
2023-05-25T11:12:24.647Z,69.10
2023-05-25T11:15:15.175Z,68.70
2023-05-25T11:18:02.812Z,68.40
2023-05-25T11:20:31.433Z,68.20
2023-05-25T11:23:21.042Z,68.40
2023-05-25T11:25:49.343Z,68.30
2023-05-25T11:28:17.752Z,68.30
2023-05-25T11:30:46.743Z,68.40
2023-05-25T11:33:16.968Z,68.20
2023-05-25T11:35:48.992Z,67.80
2023-05-25T11:38:18.526Z,67.30
2023-05-25T11:40:48.630Z,66.60
2023-05-25T11:43:18.201Z,66.10
2023-05-25T11:45:48.511Z,65.40
2023-05-25T11:48:17.103Z,64.90
2023-05-25T11:50:45.344Z,64.50
2023-05-25T11:53:14.949Z,64.20
2023-05-25T11:55:55.637Z,63.80
2023-05-25T12:01:15.108Z,61.90
2023-05-25T12:03:43.460Z,61.50
2023-05-25T12:06:25.576Z,61.60
2023-05-25T12:08:53.824Z,61.40
2023-05-25T12:11:31.024Z,61.20
2023-05-25T12:13:59.987Z,60.30
2023-05-25T12:16:28.868Z,59.80
2023-05-25T12:18:57.587Z,59.40
2023-05-25T12:21:26.429Z,59.10
2023-05-25T12:23:55.575Z,58.90
2023-05-25T12:26:23.723Z,58.80
2023-05-25T12:29:03.107Z,58.70
2023-05-25T12:31:34.153Z,58.30
2023-05-25T12:34:10.077Z,58.30
2023-05-25T12:36:42.881Z,58.50
2023-05-25T12:39:12.268Z,58.80
2023-05-25T12:41:47.889Z,58.80
2023-05-25T12:44:23.952Z,58.80
2023-05-25T12:46:53.089Z,58.90
2023-05-25T12:49:31.846Z,59.00
2023-05-25T12:52:02.072Z,59.10
2023-05-25T12:54:43.982Z,59.30
2023-05-25T12:57:14.675Z,59.20
2023-05-25T12:59:45.989Z,59.40
2023-05-25T13:02:15.172Z,59.30
2023-05-25T13:04:44.600Z,59.20
2023-05-25T13:07:12.805Z,59.10
2023-05-25T13:09:40.957Z,59.30
2023-05-25T13:12:09.631Z,59.40
2023-05-25T13:14:37.753Z,59.50
2023-05-25T13:17:07.313Z,59.70
2023-05-25T13:19:35.376Z,59.70
2023-05-25T13:22:03.542Z,59.80
2023-05-25T13:24:32.657Z,59.60
2023-05-25T13:27:01.454Z,59.40
2023-05-25T13:29:29.640Z,59.40
2023-05-25T13:31:57.883Z,59.50
2023-05-25T13:34:27.471Z,59.40
2023-05-25T13:36:55.630Z,59.40
2023-05-25T13:39:23.795Z,59.60
2023-05-25T13:41:51.920Z,59.60
2023-05-25T13:44:20.023Z,59.60
2023-05-25T13:46:48.355Z,59.30
2023-05-25T13:49:19.538Z,59.40
2023-05-25T13:51:49.168Z,59.50
2023-05-25T13:54:18.690Z,59.50
2023-05-25T13:56:46.846Z,59.50
2023-05-25T13:59:14.932Z,59.50
2023-05-25T14:01:43.121Z,59.50
2023-05-25T14:04:12.540Z,59.40
2023-05-25T14:06:40.652Z,59.20
2023-05-25T14:09:12.111Z,59.00
2023-05-25T14:11:40.968Z,58.90
2023-05-25T14:14:13.648Z,58.90
2023-05-25T14:16:44.824Z,59.00
2023-05-25T14:19:13.098Z,59.00
2023-05-25T14:21:41.204Z,59.10
2023-05-25T14:24:11.302Z,59.10
2023-05-25T14:26:39.459Z,58.90
2023-05-25T14:29:07.527Z,58.90
2023-05-25T14:31:35.668Z,59.00
2023-05-25T14:34:03.792Z,59.00
2023-05-25T14:36:31.899Z,59.10
2023-05-25T14:39:00.004Z,59.10
2023-05-25T14:41:29.483Z,59.00
2023-05-25T14:43:57.583Z,59.20
2023-05-25T14:46:25.721Z,59.20
2023-05-25T14:48:53.904Z,59.20
2023-05-25T14:51:22.062Z,59.40
2023-05-25T14:53:50.707Z,59.50
2023-05-25T14:56:20.397Z,59.50
2023-05-25T14:58:49.902Z,59.40
2023-05-25T15:01:18.043Z,59.10
2023-05-25T15:03:46.259Z,59.10
2023-05-25T15:06:14.477Z,59.10
2023-05-25T15:08:42.569Z,59.00
2023-05-25T15:11:10.662Z,58.80
2023-05-25T15:13:40.647Z,58.70
2023-05-25T15:16:12.390Z,58.80
2023-05-25T15:18:40.575Z,58.70
2023-05-25T15:21:08.905Z,58.70
2023-05-25T15:23:37.311Z,58.80
2023-05-25T15:26:07.668Z,58.60
2023-05-25T15:28:36.102Z,58.60
2023-05-25T15:31:04.468Z,58.60
2023-05-25T15:33:47.864Z,58.60
2023-05-25T15:36:18.142Z,58.70
2023-05-25T15:38:49.060Z,58.80
2023-05-25T15:41:18.000Z,58.80
2023-05-25T15:43:52.260Z,58.80
2023-05-25T15:46:20.439Z,58.80
2023-05-25T15:48:49.885Z,58.90
2023-05-25T15:51:17.978Z,59.00
2023-05-25T15:53:46.216Z,58.90
2023-05-25T15:56:14.369Z,59.00
2023-05-25T15:58:42.533Z,59.00
2023-05-25T16:01:11.855Z,59.00
2023-05-25T16:03:43.152Z,59.10
2023-05-25T16:06:12.812Z,59.20
2023-05-25T16:08:40.921Z,59.50
2023-05-25T16:11:09.196Z,59.50
2023-05-25T16:13:37.274Z,59.60
2023-05-25T16:16:05.594Z,59.80
2023-05-25T16:18:33.756Z,60.50
2023-05-25T16:21:01.899Z,59.80
2023-05-25T16:23:31.356Z,59.90
2023-05-25T16:25:59.661Z,59.90
2023-05-25T16:28:27.763Z,59.90
2023-05-25T16:30:55.907Z,59.80
2023-05-25T16:33:24.231Z,59.90
2023-05-25T16:35:53.688Z,60.00
2023-05-25T16:38:21.971Z,60.20
2023-05-25T16:40:51.450Z,60.20
2023-05-25T16:43:19.622Z,60.10
2023-05-25T16:45:47.975Z,60.00
2023-05-25T16:48:16.417Z,60.00
2023-05-25T16:50:44.600Z,60.00
2023-05-25T16:53:12.713Z,60.00
2023-05-25T16:55:40.809Z,60.00
2023-05-25T16:58:10.277Z,60.30
2023-05-25T17:00:38.388Z,60.50
2023-05-25T17:03:06.858Z,60.70
2023-05-25T17:05:35.062Z,60.60
2023-05-25T17:08:03.189Z,60.60
2023-05-25T17:10:31.271Z,60.80
2023-05-25T17:12:59.407Z,61.00
2023-05-25T17:15:28.865Z,60.80
2023-05-25T17:17:57.056Z,60.90
2023-05-25T17:20:25.320Z,61.10
2023-05-25T17:22:53.437Z,61.20
2023-05-25T17:25:21.720Z,61.50
2023-05-25T17:27:49.911Z,61.60
2023-05-25T17:30:18.298Z,61.80
2023-05-25T17:32:47.861Z,62.20
2023-05-25T17:35:16.056Z,62.50
2023-05-25T17:37:44.180Z,62.80
2023-05-25T17:40:13.929Z,62.80
2023-05-25T17:42:42.021Z,63.10
2023-05-25T17:45:11.793Z,63.30
2023-05-25T17:47:40.034Z,63.60
2023-05-25T17:50:10.460Z,63.80
2023-05-25T17:52:38.625Z,63.90
2023-05-25T17:55:07.983Z,63.70
2023-05-25T17:57:36.380Z,63.80
2023-05-25T18:00:04.912Z,64.00
2023-05-25T18:02:34.128Z,64.40
2023-05-25T18:05:02.367Z,64.80
2023-05-25T18:07:31.849Z,65.10
2023-05-25T18:09:59.944Z,65.30
2023-05-25T18:12:28.317Z,65.60
2023-05-25T18:14:56.408Z,65.70
2023-05-25T18:17:24.575Z,66.00
2023-05-25T18:19:52.757Z,66.20
2023-05-25T18:22:20.895Z,66.50
2023-05-25T18:24:50.607Z,66.60
2023-05-25T18:27:18.968Z,66.90
2023-05-25T18:29:47.087Z,67.00
2023-05-25T18:32:15.195Z,67.10
2023-05-25T18:34:44.960Z,67.40
2023-05-25T18:37:13.057Z,67.60
2023-05-25T18:39:41.213Z,67.70
2023-05-25T18:42:10.805Z,67.90
2023-05-25T18:44:39.050Z,68.10
2023-05-25T18:47:07.651Z,68.20
2023-05-25T18:49:36.474Z,68.50
2023-05-25T18:52:06.342Z,68.70
2023-05-25T18:54:34.453Z,68.80
2023-05-25T18:57:03.035Z,69.10
2023-05-25T18:59:33.563Z,69.30
2023-05-25T19:02:01.927Z,69.60
2023-05-25T19:04:30.080Z,69.90
2023-05-25T19:06:58.201Z,70.10
2023-05-25T19:09:26.297Z,70.40
2023-05-25T19:11:54.412Z,70.60
2023-05-25T19:14:22.506Z,70.90
2023-05-25T19:16:52.058Z,71.10
2023-05-25T19:19:20.269Z,71.30
2023-05-25T19:21:48.347Z,71.60
2023-05-25T19:24:18.541Z,71.80
2023-05-25T19:26:49.096Z,72.00
2023-05-25T19:29:17.936Z,72.10
2023-05-25T19:31:46.100Z,72.40
2023-05-25T19:34:15.702Z,72.60
2023-05-25T19:36:43.791Z,72.80
2023-05-25T19:39:11.930Z,73.10
2023-05-25T19:41:41.622Z,73.40
2023-05-25T19:44:10.151Z,73.60
2023-05-25T19:46:39.888Z,73.70
2023-05-25T19:49:08.189Z,73.90
2023-05-25T19:51:38.133Z,74.10
2023-05-25T19:54:06.325Z,74.20
2023-05-25T19:56:34.925Z,74.40
2023-05-25T19:59:03.056Z,74.60
2023-05-25T20:01:32.061Z,74.70
2023-05-25T20:04:00.999Z,74.90
2023-05-25T20:06:29.238Z,75.00
2023-05-25T20:08:58.718Z,75.00
2023-05-25T20:11:27.825Z,75.10
2023-05-25T20:13:56.434Z,75.10
2023-05-25T20:16:25.893Z,75.30
2023-05-25T20:18:54.038Z,75.20
2023-05-25T20:21:22.869Z,75.30
2023-05-25T20:23:51.699Z,75.30
2023-05-25T20:26:21.182Z,75.30
2023-05-25T20:28:49.289Z,75.40
2023-05-25T20:31:17.416Z,75.50
2023-05-25T20:33:45.694Z,75.50
2023-05-25T20:36:15.626Z,75.50
2023-05-25T20:38:45.437Z,75.60
2023-05-25T20:41:13.716Z,75.60
2023-05-25T20:43:43.258Z,75.70
2023-05-25T20:46:12.081Z,75.90
2023-05-25T20:48:40.626Z,75.80
2023-05-25T20:51:08.752Z,75.90
2023-05-25T20:53:36.872Z,76.10
2023-05-25T20:56:04.991Z,76.10
2023-05-25T20:58:33.263Z,76.10
2023-05-25T21:01:02.744Z,76.20
2023-05-25T21:03:30.922Z,76.20
2023-05-25T21:05:59.115Z,76.30
2023-05-25T21:08:27.214Z,76.40
2023-05-25T21:10:55.718Z,76.40
2023-05-25T21:13:23.848Z,76.50
2023-05-25T21:15:51.978Z,76.60
2023-05-25T21:18:21.524Z,76.70
2023-05-25T21:20:49.998Z,76.70
2023-05-25T21:23:18.180Z,76.80
2023-05-25T21:25:46.762Z,76.80
2023-05-25T21:28:15.076Z,76.90
2023-05-25T21:30:43.171Z,76.90
2023-05-25T21:33:11.284Z,77.00
2023-05-25T21:35:40.817Z,77.00
2023-05-25T21:38:08.927Z,77.20
2023-05-25T21:40:37.049Z,77.10
2023-05-25T21:43:05.534Z,77.20
2023-05-25T21:45:33.629Z,77.30
2023-05-25T21:48:01.781Z,77.30
2023-05-25T21:50:29.860Z,77.20
2023-05-25T21:52:59.371Z,77.30
2023-05-25T21:55:27.450Z,77.30
2023-05-25T21:57:55.529Z,77.40
2023-05-25T22:00:24.507Z,77.50
2023-05-25T22:02:52.798Z,77.60
2023-05-25T22:05:21.123Z,77.60
2023-05-25T22:07:49.221Z,77.70
2023-05-25T22:10:18.729Z,77.60
2023-05-25T22:12:46.833Z,77.70
2023-05-25T22:15:15.026Z,77.70
2023-05-25T22:17:43.116Z,77.80
2023-05-25T22:20:12.374Z,77.80
2023-05-25T22:22:40.964Z,77.70
2023-05-25T22:25:09.742Z,77.70
2023-05-25T22:27:39.301Z,77.80
2023-05-25T22:30:08.564Z,77.90
2023-05-25T22:32:36.733Z,77.80
2023-05-25T22:35:05.244Z,77.90
2023-05-25T22:37:33.308Z,77.90
2023-05-25T22:40:01.513Z,77.90
2023-05-25T22:42:29.589Z,78.00
2023-05-25T22:44:59.248Z,77.90
2023-05-25T22:47:27.388Z,78.00
2023-05-25T22:49:55.547Z,78.00
2023-05-25T22:52:23.633Z,78.00
2023-05-25T22:54:51.720Z,78.00
2023-05-25T22:57:19.818Z,78.10
2023-05-25T22:59:47.890Z,78.20
2023-05-25T23:02:17.515Z,78.10
2023-05-25T23:04:45.744Z,78.20
2023-05-25T23:07:13.886Z,78.10
2023-05-25T23:09:42.429Z,78.20
2023-05-25T23:12:10.508Z,78.30
2023-05-25T23:14:38.650Z,78.40
2023-05-25T23:17:06.766Z,78.30
2023-05-25T23:19:36.385Z,78.40
2023-05-25T23:22:04.484Z,78.50
2023-05-25T23:24:32.603Z,78.50
2023-05-25T23:27:00.825Z,78.60
2023-05-25T23:29:28.911Z,78.60
2023-05-25T23:31:57.108Z,78.60
2023-05-25T23:34:25.367Z,78.60
2023-05-25T23:36:54.836Z,78.70
2023-05-25T23:39:23.129Z,78.70
2023-05-25T23:41:51.462Z,78.70
2023-05-25T23:44:19.558Z,78.80
2023-05-25T23:46:47.684Z,78.70
2023-05-25T23:49:15.834Z,78.70
2023-05-25T23:51:43.975Z,78.80
2023-05-25T23:54:13.491Z,78.80
2023-05-25T23:56:41.582Z,78.90
2023-05-25T23:59:09.713Z,79.00
